Kezdőlap
METAR-TAF:

METAR-TAF

Repülőterek :

Narsarsuaq, Grönland

földrajzi szélesség: 61-10N, földrajzi hosszúság: 045-25W, magasság: 34 m

Jelenlegi meteorológiai megfigyelések

A jelentés 37 perccel ezelõtt készült, 04:50 UTC
Kelet-északkeleti szél 6 kt
Hőmérséklet -3°C
Páratartalom 74%
Légköri nyomás 997 hPa
Látótávolság: 6000 m
enyhe havazás

METAR: BGBW 100450Z AUTO 06006KT 6000NDV -SN FEW032/// OVC047/// M03/M07 Q0997

Idő: 02:27 (05:27 UTC)

Előrejelzés

A jelentés 15 órával és 20 perccel ezelõtt készült, 14:07 UTC
Az előrejelzés 09-én 15 óra UTC és 09-én 20 óra UTC között érvényes
Kelet-északkeleti szél 8 kt
Látótávolság 10 km, vagy több
Kevés felhő 3000 lábon
Szakadozott felhőzet 7000 lábon
09-én 15 óra UTC és 09-én 20 óra UTC között ideiglenes
Látótávolság: 6000 m
Szakadozott felhőzet 2000 lábon
enyhe havazás

TAF: BGBW 091407Z 0915/0920 06008KT 9999 FEW030 BKN070 TEMPO 0915/0920 6000 -SN BKN020

Meteorológiai megfigyelések és előrejelzések több, mint 4000 repülőtéren (METAR és TAF jelentéseket).

A térképen piros és sárga pontok jelzik az elérhető meteorológiai állomásokat.

Mozgassa az egeret a pont fölött, hogy megjelenjen az állomás neve.

Azután kattintson az időjárási megfigyelések és előrejelzések megtekintéséhez.

A térkép megváltoztatása: kattintson a fekete keresztel jelölt zöld gombra ráközelítéshez, a vonallal jelölt zöld gombra távolításhoz, vagy a zöld nyilakra a szomszédos térképek eléréséhez.


METAR-TAF: